createdAt,value
2024-01-04T00:05:08.821Z,8.01
2024-01-04T00:11:30.797Z,7.85
2024-01-04T00:17:50.860Z,7.77
2024-01-04T00:24:12.907Z,7.76
2024-01-04T00:30:32.907Z,7.75
2024-01-04T00:36:54.926Z,7.67
2024-01-04T00:43:14.832Z,7.53
2024-01-04T00:49:36.863Z,7.57
2024-01-04T00:55:56.973Z,7.67
2024-01-04T01:02:18.901Z,7.65
2024-01-04T01:08:40.361Z,7.65
2024-01-04T01:15:00.955Z,7.73
2024-01-04T01:21:20.831Z,7.81
2024-01-04T01:27:42.829Z,7.8
2024-01-04T01:34:03.017Z,7.8
2024-01-04T01:40:24.850Z,7.84
2024-01-04T01:46:44.820Z,7.83
2024-01-04T01:53:06.820Z,7.8
2024-01-04T01:59:27.354Z,7.85
2024-01-04T02:05:49.084Z,7.82
2024-01-04T02:12:08.944Z,7.85
2024-01-04T02:18:32.004Z,7.91
2024-01-04T02:24:51.906Z,7.98
2024-01-04T02:31:13.858Z,8.22
2024-01-04T02:37:33.821Z,8.31
2024-01-04T02:43:55.826Z,8.45
2024-01-04T02:50:15.861Z,8.47
2024-01-04T02:56:37.850Z,8.49
2024-01-04T03:02:57.880Z,8.48
2024-01-04T03:09:19.897Z,8.52
2024-01-04T03:15:39.864Z,8.49
2024-01-04T03:22:01.827Z,8.58
2024-01-04T03:28:21.906Z,8.56
2024-01-04T03:34:43.828Z,8.48
2024-01-04T03:41:03.893Z,8.47
2024-01-04T03:47:25.920Z,8.38
2024-01-04T03:53:45.877Z,8.39
2024-01-04T04:00:07.856Z,8.43
2024-01-04T04:06:27.839Z,8.44
2024-01-04T04:12:49.800Z,8.39
2024-01-04T04:28:19.737Z,8.46
2024-01-04T04:34:38.829Z,8.47
2024-01-04T04:41:00.859Z,8.48
2024-01-04T04:47:20.812Z,8.48
2024-01-04T04:53:42.823Z,8.5
2024-01-04T05:00:02.846Z,8.54
2024-01-04T05:06:24.884Z,8.56
2024-01-04T05:12:45.610Z,8.47
2024-01-04T05:19:06.950Z,8.29
2024-01-04T05:25:26.824Z,8.05
2024-01-04T05:31:48.821Z,8
2024-01-04T05:38:10.837Z,7.94
2024-01-04T05:44:32.849Z,7.76
2024-01-04T05:50:52.897Z,7.76
2024-01-04T05:57:14.823Z,7.75
2024-01-04T06:03:35.000Z,7.71
2024-01-04T06:09:56.806Z,7.59
2024-01-04T06:16:16.824Z,7.59
2024-01-04T06:22:38.833Z,7.61
2024-01-04T06:28:58.816Z,7.55
2024-01-04T06:35:20.878Z,7.62
2024-01-04T06:41:40.865Z,7.58
2024-01-04T06:48:02.873Z,7.63
2024-01-04T06:54:22.829Z,7.64
2024-01-04T07:00:44.969Z,7.66
2024-01-04T07:07:04.850Z,7.67
2024-01-04T07:13:26.780Z,7.6
2024-01-04T07:19:46.909Z,7.63
2024-01-04T07:26:08.805Z,7.59
2024-01-04T07:32:28.816Z,7.61
2024-01-04T07:38:50.870Z,7.67
2024-01-04T07:45:10.834Z,7.73
2024-01-04T07:51:32.817Z,7.69
2024-01-04T07:57:52.870Z,7.74
2024-01-04T08:04:14.871Z,7.73
2024-01-04T08:10:34.875Z,7.81
2024-01-04T08:16:56.824Z,7.84
2024-01-04T08:23:16.791Z,7.86
2024-01-04T08:29:38.910Z,7.92
2024-01-04T08:35:59.244Z,7.91
2024-01-04T08:42:21.148Z,8.01
2024-01-04T08:48:40.863Z,8.1
2024-01-04T08:55:02.822Z,8.16
2024-01-04T09:01:22.859Z,8.27
2024-01-04T09:07:44.804Z,8.34
2024-01-04T09:14:04.941Z,8.51
2024-01-04T09:20:26.843Z,8.59
2024-01-04T09:26:46.861Z,8.67
2024-01-04T09:49:51.958Z,9.06
2024-01-04T09:56:13.806Z,8.95
2024-01-04T10:02:33.817Z,9.03
2024-01-04T10:08:55.827Z,9.05
2024-01-04T10:15:15.854Z,9.22
2024-01-04T10:21:37.798Z,9.24
2024-01-04T10:27:57.843Z,9.27
2024-01-04T10:34:19.906Z,9.4
2024-01-04T10:40:39.832Z,9.3
2024-01-04T10:47:01.824Z,9.37
2024-01-04T10:53:21.838Z,9.4
2024-01-04T10:59:43.824Z,9.37
2024-01-04T11:06:04.079Z,9.48
2024-01-04T11:12:25.971Z,9.51
2024-01-04T11:18:45.882Z,9.57
2024-01-04T11:25:07.856Z,9.39
2024-01-04T11:31:27.903Z,9.4
2024-01-04T11:37:50.268Z,9.37
2024-01-04T11:44:09.852Z,9.57
2024-01-04T11:50:32.011Z,9.63
2024-01-04T11:56:51.900Z,9.67
2024-01-04T12:03:13.862Z,9.5
2024-01-04T12:09:33.833Z,9.38
2024-01-04T12:15:55.849Z,9.42
2024-01-04T12:22:15.839Z,9.49
2024-01-04T12:28:37.871Z,9.48
2024-01-04T12:34:57.810Z,9.53
2024-01-04T12:41:19.867Z,9.51
2024-01-04T12:47:39.973Z,9.68
2024-01-04T12:54:01.833Z,9.72
2024-01-04T13:00:21.873Z,9.71
2024-01-04T13:06:44.040Z,9.7
2024-01-04T13:13:03.827Z,9.79
2024-01-04T13:19:25.939Z,9.72
2024-01-04T13:25:45.823Z,9.77
2024-01-04T13:32:07.827Z,9.84
2024-01-04T13:38:27.834Z,9.95
2024-01-04T13:44:49.884Z,10
2024-01-04T13:51:09.932Z,9.87
2024-01-04T13:57:31.903Z,9.76
2024-01-04T14:03:51.949Z,9.75
2024-01-04T14:10:13.789Z,9.61
2024-01-04T14:16:33.900Z,9.77
2024-01-04T14:22:55.807Z,9.76
2024-01-04T14:29:15.846Z,9.63
2024-01-04T14:35:37.855Z,9.54
2024-01-04T14:58:59.361Z,9.62
2024-01-04T15:05:18.804Z,9.57
2024-01-04T15:11:40.799Z,9.64
2024-01-04T15:18:01.050Z,9.52
2024-01-04T15:24:22.875Z,9.51
2024-01-04T15:30:42.956Z,9.48
2024-01-04T15:37:04.853Z,9.43
2024-01-04T15:43:24.816Z,9.38
2024-01-04T15:49:46.875Z,9.32
2024-01-04T15:56:06.861Z,9.22
2024-01-04T16:02:28.856Z,9.2
2024-01-04T16:08:48.963Z,9.08
2024-01-04T16:15:10.869Z,8.9
2024-01-04T16:21:30.852Z,8.82
2024-01-04T16:27:52.821Z,8.67
2024-01-04T16:34:12.978Z,8.44
2024-01-04T16:40:34.825Z,8.37
2024-01-04T16:46:54.849Z,8.28
2024-01-04T16:53:16.900Z,8.16
2024-01-04T16:59:36.816Z,8.09
2024-01-04T17:05:58.899Z,8.03
2024-01-04T17:12:18.843Z,7.82
2024-01-04T17:18:40.868Z,7.75
2024-01-04T17:25:00.810Z,7.62
2024-01-04T17:31:22.899Z,7.37
2024-01-04T17:37:42.856Z,7.22
2024-01-04T17:44:04.878Z,7.23
2024-01-04T17:50:24.878Z,7.19
2024-01-04T17:56:46.865Z,7.04
2024-01-04T18:03:07.893Z,6.96
2024-01-04T18:09:29.878Z,6.94
2024-01-04T18:15:49.802Z,6.95
2024-01-04T18:22:11.875Z,6.99
2024-01-04T18:28:31.862Z,7.02
2024-01-04T18:34:53.818Z,7.03
2024-01-04T18:41:13.861Z,7.09
2024-01-04T18:47:35.947Z,7.02
2024-01-04T18:53:55.831Z,6.93
2024-01-04T19:00:18.074Z,6.88
2024-01-04T19:06:38.000Z,6.92
2024-01-04T19:12:59.801Z,6.88
2024-01-04T19:19:19.866Z,6.85
2024-01-04T19:25:41.854Z,6.88
2024-01-04T19:32:01.831Z,6.89
2024-01-04T19:38:23.905Z,6.9
2024-01-04T20:02:22.224Z,7.12
2024-01-04T20:08:41.815Z,7.19
2024-01-04T20:15:04.135Z,7.21
2024-01-04T20:21:23.925Z,7.2
2024-01-04T20:27:45.844Z,7.2
2024-01-04T20:34:05.905Z,7.15
2024-01-04T20:40:28.088Z,7.12
2024-01-04T20:46:47.820Z,7.19
2024-01-04T20:53:09.821Z,7.17
2024-01-04T20:59:29.961Z,7.19
2024-01-04T21:05:51.864Z,7.19
2024-01-04T21:12:11.899Z,7.22
2024-01-04T21:18:34.711Z,7.22
2024-01-04T21:24:53.848Z,7.19
2024-01-04T21:31:15.873Z,7.19
2024-01-04T21:37:35.839Z,7.18
2024-01-04T21:43:57.871Z,7.17
2024-01-04T21:50:17.821Z,7.24
2024-01-04T21:56:40.044Z,7.27
2024-01-04T22:02:59.903Z,7.32
2024-01-04T22:09:21.830Z,7.36
2024-01-04T22:15:41.885Z,7.42
2024-01-04T22:22:03.844Z,7.45
2024-01-04T22:28:24.163Z,7.51
2024-01-04T22:34:45.872Z,7.62
2024-01-04T22:41:05.813Z,7.68
2024-01-04T22:47:27.887Z,7.73
2024-01-04T22:53:47.815Z,7.8
2024-01-04T23:00:09.917Z,7.76
2024-01-04T23:23:06.800Z,7.71
2024-01-04T23:29:26.825Z,7.7
2024-01-04T23:35:48.844Z,7.67
2024-01-04T23:42:08.976Z,7.64
2024-01-04T23:48:30.907Z,7.65
2024-01-04T23:54:50.828Z,7.67
